createdAt,value
2022-08-31T00:01:56.326Z,23.8
2022-08-31T00:21:56.219Z,23.5
2022-08-31T00:41:56.215Z,23.1
2022-08-31T01:01:56.171Z,22.7
2022-08-31T01:21:56.163Z,22.6
2022-08-31T02:01:56.094Z,21.6
2022-08-31T02:21:56.061Z,21.5
2022-08-31T02:41:56.073Z,21.6
2022-08-31T03:01:56.087Z,20.9
2022-08-31T03:21:55.986Z,21.0
2022-08-31T04:01:55.955Z,21.3
2022-08-31T04:21:55.911Z,21.0
2022-08-31T04:41:55.902Z,21.1
2022-08-31T05:01:55.900Z,21.2
2022-08-31T05:21:55.837Z,21.1
2022-08-31T05:41:55.834Z,20.8
2022-08-31T06:01:55.783Z,21.0
2022-08-31T06:21:55.823Z,21.2
2022-08-31T06:41:55.859Z,21.2
2022-08-31T07:01:55.720Z,21.5
2022-08-31T07:21:55.782Z,21.1
2022-08-31T07:41:55.658Z,20.3
2022-08-31T08:01:55.717Z,19.1
2022-08-31T08:21:55.679Z,19.2
2022-08-31T08:41:55.654Z,18.7
2022-08-31T09:01:55.556Z,18.6
2022-08-31T09:21:55.528Z,18.5
2022-08-31T10:01:55.525Z,18.6
2022-08-31T10:21:55.441Z,19.0
2022-08-31T10:41:55.464Z,19.6
2022-08-31T11:01:55.401Z,20.1
2022-08-31T11:21:55.392Z,20.5
2022-08-31T11:41:55.371Z,20.9
2022-08-31T12:01:55.394Z,21.7
2022-08-31T12:21:55.293Z,21.3
2022-08-31T12:41:55.312Z,21.5
2022-08-31T13:01:55.313Z,21.3
2022-08-31T13:21:55.226Z,21.8
2022-08-31T13:41:55.187Z,21.8
2022-08-31T14:01:55.174Z,22.1
2022-08-31T14:21:55.141Z,22.3
2022-08-31T14:41:55.144Z,22.9
2022-08-31T15:01:55.106Z,23.4
2022-08-31T15:21:55.061Z,23.6
2022-08-31T15:41:55.029Z,23.7
2022-08-31T16:01:55.018Z,23.7
2022-08-31T16:21:54.989Z,23.7
2022-08-31T16:41:54.969Z,24.1
2022-08-31T17:01:54.961Z,23.9
2022-08-31T17:21:54.969Z,23.4
2022-08-31T17:41:54.882Z,23.1
2022-08-31T18:01:54.926Z,22.8
2022-08-31T18:21:54.894Z,22.5
2022-08-31T18:41:54.880Z,22.2
2022-08-31T19:01:54.783Z,21.8
2022-08-31T19:21:54.825Z,21.3
2022-08-31T19:41:54.756Z,20.7
2022-08-31T20:01:54.688Z,20.4
2022-08-31T20:21:54.745Z,20.1
2022-08-31T20:41:54.641Z,20.0
2022-08-31T21:01:54.689Z,19.7
2022-08-31T21:21:54.591Z,19.8
2022-08-31T21:41:54.641Z,19.7
2022-08-31T22:01:54.564Z,19.7
2022-08-31T22:21:54.524Z,19.5
2022-08-31T22:41:54.503Z,19.5
2022-08-31T23:01:54.548Z,19.2
2022-08-31T23:21:54.460Z,19.0
2022-08-31T23:41:54.484Z,18.8
